createdAt,value
2023-05-05T00:03:15.803Z,100875.19
2023-05-05T00:08:17.636Z,100870.66
2023-05-05T00:13:20.283Z,100886.13
2023-05-05T00:18:21.756Z,100882.47
2023-05-05T00:23:23.108Z,100887.34
2023-05-05T00:28:24.457Z,100877.16
2023-05-05T00:33:25.860Z,100884.63
2023-05-05T00:38:27.265Z,100892.09
2023-05-05T00:43:29.015Z,100883.63
2023-05-05T00:48:31.258Z,100879.06
2023-05-05T00:53:32.892Z,100878.09
2023-05-05T00:58:34.672Z,100878.03
2023-05-05T01:03:37.424Z,100885.28
2023-05-05T01:08:41.588Z,100889.97
2023-05-05T01:14:06.015Z,100883.16
2023-05-05T01:19:23.368Z,100881.44
2023-05-05T01:24:34.264Z,100882.06
2023-05-05T01:29:54.459Z,100891.72
2023-05-05T01:35:02.042Z,100888.06
2023-05-05T01:40:08.156Z,100895.41
2023-05-05T01:45:11.293Z,100909.75
2023-05-05T01:50:13.664Z,100914.47
2023-05-05T01:55:17.937Z,100907.94
2023-05-05T02:00:19.443Z,100910.03
2023-05-05T02:05:22.966Z,100921.25
2023-05-05T02:10:24.588Z,100926.16
2023-05-05T02:15:27.663Z,100927.50
2023-05-05T02:20:30.995Z,100937.56
2023-05-05T02:25:36.782Z,100932.81
2023-05-05T02:30:39.027Z,100928.03
2023-05-05T02:35:41.541Z,100929.09
2023-05-05T02:40:49.646Z,100935.66
2023-05-05T02:45:51.308Z,100938.22
2023-05-05T02:50:53.856Z,100933.69
2023-05-05T02:56:12.950Z,100935.50
2023-05-05T03:01:29.130Z,100937.72
2023-05-05T03:06:36.366Z,100937.88
2023-05-05T03:11:47.597Z,100937.06
2023-05-05T03:16:49.588Z,100929.13
2023-05-05T03:21:52.350Z,100948.22
2023-05-05T03:26:53.866Z,100934.00
2023-05-05T03:31:58.365Z,100941.78
2023-05-05T03:37:00.328Z,100933.09
2023-05-05T03:42:01.891Z,100948.41
2023-05-05T03:47:06.556Z,100954.44
2023-05-05T03:52:12.652Z,100955.31
2023-05-05T03:57:16.618Z,100973.72
2023-05-05T04:02:18.897Z,100982.44
2023-05-05T04:07:23.522Z,100985.50
2023-05-05T04:12:24.933Z,100989.09
2023-05-05T04:17:26.540Z,100992.34
2023-05-05T04:22:28.139Z,100989.16
2023-05-05T04:27:30.278Z,100987.75
2023-05-05T04:32:33.573Z,100990.78
2023-05-05T04:37:35.093Z,100995.47
2023-05-05T04:42:36.605Z,101001.00
2023-05-05T04:47:39.182Z,101004.72
2023-05-05T04:52:40.974Z,101009.22
2023-05-05T04:57:42.934Z,101018.25
2023-05-05T05:02:45.509Z,101019.72
2023-05-05T05:07:47.315Z,101017.19
2023-05-05T05:12:48.757Z,101009.81
2023-05-05T05:17:50.433Z,101026.28
2023-05-05T05:22:51.950Z,101026.94
2023-05-05T05:33:04.391Z,101033.34
2023-05-05T05:38:06.541Z,101030.72
2023-05-05T05:43:08.432Z,101041.44
2023-05-05T05:48:11.476Z,101052.78
2023-05-05T05:53:13.103Z,101053.00
2023-05-05T05:58:16.452Z,101038.03
2023-05-05T06:03:18.166Z,101041.44
2023-05-05T06:08:19.693Z,101042.50
2023-05-05T06:13:26.248Z,101036.69
2023-05-05T06:18:27.912Z,101040.88
2023-05-05T06:23:29.377Z,101039.94
2023-05-05T06:28:35.942Z,101038.50
2023-05-05T06:33:37.299Z,101053.53
2023-05-05T06:38:38.636Z,101055.84
2023-05-05T06:43:39.979Z,101065.00
2023-05-05T06:48:46.352Z,101079.09
2023-05-05T06:53:47.762Z,101084.00
2023-05-05T06:58:49.114Z,101081.91
2023-05-05T07:03:50.959Z,101083.09
2023-05-05T07:08:52.414Z,101086.16
2023-05-05T07:13:53.792Z,101079.81
2023-05-05T07:18:55.200Z,101086.41
2023-05-05T07:23:56.797Z,101087.44
2023-05-05T07:28:59.112Z,101086.75
2023-05-05T07:34:00.590Z,101091.28
2023-05-05T07:39:01.949Z,101092.34
2023-05-05T07:44:03.364Z,101104.69
2023-05-05T07:49:04.740Z,101100.88
2023-05-05T07:54:06.238Z,101102.97
2023-05-05T07:59:07.651Z,101103.84
2023-05-05T08:04:09.096Z,101097.44
2023-05-05T08:09:10.631Z,101095.56
2023-05-05T08:14:11.988Z,101107.38
2023-05-05T08:19:27.658Z,101096.47
2023-05-05T08:24:30.805Z,101097.41
2023-05-05T08:29:32.282Z,101089.72
2023-05-05T08:34:33.745Z,101093.56
2023-05-05T08:39:35.250Z,101096.47
2023-05-05T08:44:36.898Z,101104.72
2023-05-05T08:49:47.595Z,101100.91
2023-05-05T08:54:57.723Z,101084.97
2023-05-05T08:59:59.966Z,101093.44
2023-05-05T09:05:05.048Z,101096.50
2023-05-05T09:10:08.288Z,101096.81
2023-05-05T09:15:10.637Z,101102.69
2023-05-05T09:20:12.842Z,101087.59
2023-05-05T09:25:15.108Z,101095.75
2023-05-05T09:30:26.821Z,101096.88
2023-05-05T09:35:28.372Z,101098.19
2023-05-05T09:40:44.190Z,101101.78
2023-05-05T09:45:46.477Z,101105.84
2023-05-05T09:50:48.397Z,101104.59
2023-05-05T09:56:08.089Z,101096.03
2023-05-05T10:01:21.338Z,101086.97
2023-05-05T10:06:38.962Z,101067.09
2023-05-05T10:11:45.952Z,101067.81
2023-05-05T10:16:51.587Z,101061.78
2023-05-05T10:21:53.912Z,101052.78
2023-05-05T10:26:56.526Z,101067.41
2023-05-05T10:32:08.734Z,101053.13
2023-05-05T10:37:19.609Z,101060.06
2023-05-05T10:42:22.304Z,101076.94
2023-05-05T10:47:24.262Z,101067.34
2023-05-05T10:52:37.748Z,101066.00
2023-05-05T10:57:40.443Z,101071.19
2023-05-05T11:02:41.852Z,101071.28
2023-05-05T11:07:47.092Z,101066.91
2023-05-05T11:13:02.435Z,101057.34
2023-05-05T11:18:07.471Z,101058.63
2023-05-05T11:23:09.687Z,101052.75
2023-05-05T11:28:12.676Z,101046.19
2023-05-05T11:33:29.141Z,101055.56
2023-05-05T11:38:30.554Z,101063.09
2023-05-05T11:43:32.012Z,101060.59
2023-05-05T11:48:43.376Z,101056.50
2023-05-05T11:53:45.942Z,101053.41
2023-05-05T11:59:05.956Z,101041.19
2023-05-05T12:04:11.165Z,101039.78
2023-05-05T12:09:15.411Z,101041.16
2023-05-05T12:14:16.850Z,101042.50
2023-05-05T12:19:18.235Z,101045.09
2023-05-05T12:24:19.623Z,101043.13
2023-05-05T12:29:25.240Z,101041.50
2023-05-05T12:34:27.304Z,101040.09
2023-05-05T12:39:36.252Z,101044.13
2023-05-05T12:44:38.762Z,101041.25
2023-05-05T12:49:50.235Z,101035.22
2023-05-05T12:54:58.790Z,101039.81
2023-05-05T13:00:12.219Z,101049.09
2023-05-05T13:05:13.673Z,101024.06
2023-05-05T13:10:15.249Z,101036.22
2023-05-05T13:15:16.694Z,101034.03
2023-05-05T13:20:18.087Z,101031.22
2023-05-05T13:25:19.437Z,101029.91
2023-05-05T13:30:20.917Z,101030.38
2023-05-05T13:35:22.339Z,101018.22
2023-05-05T13:40:25.771Z,101014.88
2023-05-05T13:45:27.398Z,101001.84
2023-05-05T13:50:29.050Z,101006.00
2023-05-05T13:55:30.456Z,100996.81
2023-05-05T14:00:32.540Z,100986.97
2023-05-05T14:05:34.529Z,100984.31
2023-05-05T14:10:36.237Z,100999.91
2023-05-05T14:15:37.625Z,101004.44
2023-05-05T14:20:38.983Z,101020.03
2023-05-05T14:25:40.365Z,101037.38
2023-05-05T14:30:41.911Z,101031.50
2023-05-05T14:35:43.358Z,101036.56
2023-05-05T14:40:44.760Z,101040.59
2023-05-05T14:45:46.182Z,101040.84
2023-05-05T14:50:47.971Z,101051.19
2023-05-05T14:55:49.408Z,101052.81
2023-05-05T15:00:52.576Z,101064.31
2023-05-05T15:05:53.959Z,101064.63
2023-05-05T15:10:55.366Z,101054.94
2023-05-05T15:15:56.776Z,101058.06
2023-05-05T15:20:58.136Z,101052.34
2023-05-05T15:25:59.506Z,101057.38
2023-05-05T15:31:03.557Z,101043.31
2023-05-05T15:36:05.138Z,101046.97
2023-05-05T15:41:06.934Z,101067.13
2023-05-05T15:46:08.300Z,101057.72
2023-05-05T15:51:11.201Z,101056.75
2023-05-05T15:56:12.608Z,101053.53
2023-05-05T16:01:14.047Z,101056.84
2023-05-05T16:06:15.596Z,101067.56
2023-05-05T16:11:17.028Z,101065.38
2023-05-05T16:16:18.448Z,101058.91
2023-05-05T16:21:19.888Z,101054.75
2023-05-05T16:26:21.279Z,101056.22
2023-05-05T16:31:22.698Z,101058.13
2023-05-05T16:36:24.242Z,101050.22
2023-05-05T16:41:28.877Z,101047.31
2023-05-05T16:46:30.307Z,101036.16
2023-05-05T16:51:31.737Z,101043.72
2023-05-05T16:56:33.092Z,101061.72
2023-05-05T17:01:34.868Z,101056.97
2023-05-05T17:06:36.458Z,101092.22
2023-05-05T17:11:37.896Z,101125.03
2023-05-05T17:16:39.355Z,101125.91
2023-05-05T17:21:42.690Z,101102.97
2023-05-05T17:26:44.075Z,101093.91
2023-05-05T17:31:48.386Z,101083.31
2023-05-05T17:36:49.846Z,101072.88
2023-05-05T17:41:51.499Z,101079.28
2023-05-05T17:46:52.930Z,101055.88
2023-05-05T17:51:54.279Z,101056.38
2023-05-05T17:56:55.635Z,101057.56
2023-05-05T18:01:56.990Z,101061.84
2023-05-05T18:06:58.360Z,101071.03
2023-05-05T18:11:59.713Z,101075.25
2023-05-05T18:17:01.227Z,101083.59
2023-05-05T18:22:02.638Z,101078.75
2023-05-05T18:27:05.334Z,101080.34
2023-05-05T18:32:06.780Z,101090.09
2023-05-05T18:37:08.259Z,101072.84
2023-05-05T18:42:09.772Z,101083.19
2023-05-05T18:47:11.327Z,101085.84
2023-05-05T18:52:13.472Z,101098.63
2023-05-05T18:57:14.900Z,101097.13
2023-05-05T19:02:16.957Z,101093.13
2023-05-05T19:07:27.526Z,101095.28
2023-05-05T19:12:33.054Z,101106.69
2023-05-05T19:17:34.472Z,101114.38
2023-05-05T19:22:35.963Z,101122.03
2023-05-05T19:27:37.502Z,101129.28
2023-05-05T19:32:39.017Z,101122.50
2023-05-05T19:37:40.617Z,101125.50
2023-05-05T19:42:42.057Z,101117.66
2023-05-05T19:47:43.494Z,101116.28
2023-05-05T19:52:44.845Z,101126.47
2023-05-05T19:57:46.155Z,101129.09
2023-05-05T20:02:48.925Z,101120.66
2023-05-05T20:07:50.787Z,101126.56
2023-05-05T20:12:52.357Z,101130.44
2023-05-05T20:17:53.819Z,101138.91
2023-05-05T20:22:55.261Z,101138.41
2023-05-05T20:27:56.627Z,101133.31
2023-05-05T20:32:58.070Z,101136.56
2023-05-05T20:37:59.462Z,101134.88
2023-05-05T20:43:00.942Z,101137.91
2023-05-05T20:48:03.353Z,101135.13
2023-05-05T20:53:05.558Z,101135.69
2023-05-05T20:58:07.360Z,101135.28
2023-05-05T21:03:08.838Z,101130.81
2023-05-05T21:08:10.255Z,101129.44
2023-05-05T21:13:11.720Z,101134.03
2023-05-05T21:18:13.085Z,101133.06
2023-05-05T21:23:14.445Z,101142.00
2023-05-05T21:28:15.948Z,101139.38
2023-05-05T21:33:17.458Z,101130.50
2023-05-05T21:38:18.816Z,101137.59
2023-05-05T21:43:20.159Z,101130.03
2023-05-05T21:48:21.500Z,101133.03
2023-05-05T21:53:23.259Z,101126.69
2023-05-05T21:58:25.048Z,101129.81
2023-05-05T22:03:26.773Z,101126.66
2023-05-05T22:08:28.401Z,101120.56
2023-05-05T22:13:29.777Z,101116.22
2023-05-05T22:18:31.189Z,101112.81
2023-05-05T22:23:32.639Z,101116.75
2023-05-05T22:28:33.996Z,101119.94
2023-05-05T22:33:36.029Z,101121.00
2023-05-05T22:38:37.417Z,101112.03
2023-05-05T22:43:38.951Z,101125.59
2023-05-05T22:48:40.375Z,101114.69
2023-05-05T22:53:41.771Z,101114.81
2023-05-05T22:58:43.188Z,101113.84
2023-05-05T23:03:44.532Z,101110.56
2023-05-05T23:08:46.059Z,101111.78
2023-05-05T23:13:47.459Z,101117.84
2023-05-05T23:18:50.606Z,101122.25
2023-05-05T23:23:51.945Z,101127.75
2023-05-05T23:28:53.397Z,101123.38
2023-05-05T23:33:54.712Z,101117.94
2023-05-05T23:38:56.053Z,101117.38
2023-05-05T23:43:57.397Z,101111.84
2023-05-05T23:48:58.738Z,101109.81
2023-05-05T23:54:00.147Z,101098.88
2023-05-05T23:59:01.583Z,101095.03
